Terminal Aerodrome Forecast
Issued by NWS

Home | Current Version | Previous Version | Graphics & Text | Print | Product List | Glossary On
Versions: 1 2 3 4 5 6 7 8 9 10 11 12 13 14 15 16 17 18 19 20
000
FTUS43 KBIS 050528
TAFDIK
TAF
KDIK 050528Z 0506/0606 VRB05KT 5SM BR SCT100
     FM050900 02006KT P6SM SCT070
     FM051100 03010KT P6SM VCTS SCT025 SCT035CB BKN070
     FM051500 01016KT P6SM -SHRA VCTS SCT025 BKN035CB OVC070
     FM052100 01014KT P6SM VCSH BKN040 BKN070
     FM060200 35008KT P6SM BKN070=

USA.gov is the U.S. government's official web portal to all federal, state and local government web resources and services.